CYZX

CFB Greenwood Airport

Greenwood, Nova Scotia, Canada
METAR CYZX 220600Z 00000KT 15SM SCT066 BKN250 03/M02 A3015 RMK AC3CI2 SLP211
Observed Flight Rules
Apr-22 @ 06:00 UTC (52 minutes ago) Visual Flight Rules
Visibility Clouds
15 miles
  • Scattered at 6,600' AGL
  • Broken at 25,000' AGL
Temperatures Readings
Current 3°C / 37°F
Dewpoint -2°C / 28°F
Humidity 70%
Altimeter 30.15" Hg
Pressure 1021.1 hPa
Elevation 28
METAR CYZX 220600Z 00000KT 15SM SCT066 BKN250 03/M02 A3015 RMK AC3CI2 SLP211
Observed Flight Rules
Apr-22 @ 06:00 UTC
(52 minutes ago)
VFR
Clouds
  • Scattered at 6,600' AGL
  • Broken at 25,000' AGL
Temperature Dewpoint
3°C / 37°F -2°C / 28°F
Humidity Altimeter Pressure
70% 30.15" Hg 1021.1 hPa